sensor_id;sensor_type;location;lat;lon;timestamp;P1;durP1;ratioP1;P2;durP2;ratioP2
27957;SDS011;15295;42.658;23.374;2023-06-22T00:49:14;13.43;;;11.27;;
27957;SDS011;15295;42.658;23.374;2023-06-22T00:51:46;12.93;;;11.13;;
27957;SDS011;15295;42.658;23.374;2023-06-22T00:55:04;14.38;;;10.40;;
27957;SDS011;15295;42.658;23.374;2023-06-22T00:58:04;15.82;;;10.25;;
27957;SDS011;15295;42.658;23.374;2023-06-22T01:04:08;14.35;;;9.30;;
27957;SDS011;15295;42.658;23.374;2023-06-22T01:07:22;11.80;;;9.77;;
27957;SDS011;15295;42.658;23.374;2023-06-22T01:31:50;12.77;;;10.90;;
27957;SDS011;15295;42.658;23.374;2023-06-22T01:34:59;13.60;;;11.18;;
27957;SDS011;15295;42.658;23.374;2023-06-22T01:38:00;14.75;;;11.40;;
27957;SDS011;15295;42.658;23.374;2023-06-22T01:41:07;12.63;;;11.27;;
27957;SDS011;15295;42.658;23.374;2023-06-22T01:44:17;13.25;;;10.98;;
27957;SDS011;15295;42.658;23.374;2023-06-22T01:47:29;12.57;;;11.00;;
27957;SDS011;15295;42.658;23.374;2023-06-22T01:50:16;12.88;;;10.82;;
27957;SDS011;15295;42.658;23.374;2023-06-22T01:53:28;12.82;;;10.75;;
27957;SDS011;15295;42.658;23.374;2023-06-22T02:06:10;15.07;;;11.73;;
27957;SDS011;15295;42.658;23.374;2023-06-22T02:08:53;16.92;;;11.82;;
27957;SDS011;15295;42.658;23.374;2023-06-22T02:11:36;15.20;;;11.63;;
27957;SDS011;15295;42.658;23.374;2023-06-22T02:14:51;15.52;;;11.90;;
27957;SDS011;15295;42.658;23.374;2023-06-22T02:28:29;17.73;;;11.38;;
27957;SDS011;15295;42.658;23.374;2023-06-22T02:47:44;17.25;;;11.07;;
27957;SDS011;15295;42.658;23.374;2023-06-22T03:07:57;15.13;;;12.50;;
27957;SDS011;15295;42.658;23.374;2023-06-22T03:11:11;18.27;;;12.23;;
27957;SDS011;15295;42.658;23.374;2023-06-22T03:13:41;14.02;;;11.75;;
27957;SDS011;15295;42.658;23.374;2023-06-22T03:21:48;16.38;;;12.13;;
27957;SDS011;15295;42.658;23.374;2023-06-22T03:30:49;14.07;;;11.38;;
27957;SDS011;15295;42.658;23.374;2023-06-22T03:33:26;17.67;;;11.90;;
27957;SDS011;15295;42.658;23.374;2023-06-22T03:38:45;14.52;;;11.35;;
27957;SDS011;15295;42.658;23.374;2023-06-22T03:41:57;15.95;;;12.40;;
27957;SDS011;15295;42.658;23.374;2023-06-22T03:45:48;20.23;;;12.45;;
27957;SDS011;15295;42.658;23.374;2023-06-22T04:19:56;22.17;;;14.75;;
27957;SDS011;15295;42.658;23.374;2023-06-22T04:22:25;22.42;;;13.85;;
27957;SDS011;15295;42.658;23.374;2023-06-22T04:25:36;25.15;;;15.20;;
27957;SDS011;15295;42.658;23.374;2023-06-22T04:28:57;39.38;;;16.80;;
27957;SDS011;15295;42.658;23.374;2023-06-22T05:37:48;18.17;;;14.98;;
27957;SDS011;15295;42.658;23.374;2023-06-22T05:41:18;20.40;;;14.77;;
27957;SDS011;15295;42.658;23.374;2023-06-22T05:44:03;27.05;;;16.60;;
27957;SDS011;15295;42.658;23.374;2023-06-22T05:46:33;26.83;;;16.83;;
27957;SDS011;15295;42.658;23.374;2023-06-22T05:49:15;26.98;;;16.83;;
27957;SDS011;15295;42.658;23.374;2023-06-22T05:52:40;29.67;;;18.23;;
27957;SDS011;15295;42.658;23.374;2023-06-22T06:31:26;19.75;;;16.15;;
27957;SDS011;15295;42.658;23.374;2023-06-22T06:33:56;22.45;;;14.90;;
27957;SDS011;15295;42.658;23.374;2023-06-22T06:36:32;19.17;;;14.55;;
27957;SDS011;15295;42.658;23.374;2023-06-22T06:39:03;20.00;;;13.40;;
27957;SDS011;15295;42.658;23.374;2023-06-22T06:41:41;20.60;;;13.75;;
27957;SDS011;15295;42.658;23.374;2023-06-22T06:44:20;19.63;;;14.88;;
27957;SDS011;15295;42.658;23.374;2023-06-22T06:53:38;30.90;;;14.55;;
27957;SDS011;15295;42.658;23.374;2023-06-22T06:56:23;23.52;;;13.32;;
27957;SDS011;15295;42.658;23.374;2023-06-22T09:47:42;15.77;;;11.63;;
27957;SDS011;15295;42.658;23.374;2023-06-22T09:50:23;21.92;;;12.98;;
27957;SDS011;15295;42.658;23.374;2023-06-22T09:58:18;13.48;;;11.13;;
27957;SDS011;15295;42.658;23.374;2023-06-22T10:10:40;17.48;;;13.43;;
27957;SDS011;15295;42.658;23.374;2023-06-22T13:38:27;17.52;;;11.57;;
27957;SDS011;15295;42.658;23.374;2023-06-22T13:41:32;21.85;;;12.32;;
27957;SDS011;15295;42.658;23.374;2023-06-22T13:44:21;18.88;;;12.82;;
27957;SDS011;15295;42.658;23.374;2023-06-22T13:49:35;17.27;;;11.35;;
27957;SDS011;15295;42.658;23.374;2023-06-22T14:10:54;19.52;;;12.32;;
27957;SDS011;15295;42.658;23.374;2023-06-22T14:29:18;19.33;;;13.68;;
27957;SDS011;15295;42.658;23.374;2023-06-22T14:34:46;19.27;;;14.20;;
27957;SDS011;15295;42.658;23.374;2023-06-22T14:37:59;20.45;;;14.23;;
27957;SDS011;15295;42.658;23.374;2023-06-22T14:41:16;21.02;;;14.35;;
27957;SDS011;15295;42.658;23.374;2023-06-22T14:47:02;20.27;;;14.68;;
27957;SDS011;15295;42.658;23.374;2023-06-22T14:49:54;22.13;;;17.02;;
27957;SDS011;15295;42.658;23.374;2023-06-22T15:14:09;26.83;;;16.20;;
27957;SDS011;15295;42.658;23.374;2023-06-22T15:17:35;28.75;;;17.27;;
27957;SDS011;15295;42.658;23.374;2023-06-22T15:20:51;26.95;;;16.20;;
27957;SDS011;15295;42.658;23.374;2023-06-22T15:24:01;25.85;;;14.55;;
27957;SDS011;15295;42.658;23.374;2023-06-22T15:27:16;32.13;;;21.40;;
27957;SDS011;15295;42.658;23.374;2023-06-22T15:55:25;24.55;;;14.30;;
27957;SDS011;15295;42.658;23.374;2023-06-22T16:16:32;42.03;;;29.30;;
27957;SDS011;15295;42.658;23.374;2023-06-22T17:39:53;25.08;;;18.27;;
27957;SDS011;15295;42.658;23.374;2023-06-22T17:43:07;28.73;;;18.60;;
27957;SDS011;15295;42.658;23.374;2023-06-22T17:45:48;26.13;;;19.17;;
27957;SDS011;15295;42.658;23.374;2023-06-22T17:48:47;23.60;;;18.00;;
27957;SDS011;15295;42.658;23.374;2023-06-22T17:51:22;25.83;;;17.38;;
27957;SDS011;15295;42.658;23.374;2023-06-22T17:54:02;28.58;;;17.40;;
27957;SDS011;15295;42.658;23.374;2023-06-22T17:56:37;23.92;;;18.30;;
27957;SDS011;15295;42.658;23.374;2023-06-22T17:59:36;25.10;;;18.45;;
27957;SDS011;15295;42.658;23.374;2023-06-22T18:23:23;23.67;;;17.98;;
27957;SDS011;15295;42.658;23.374;2023-06-22T19:40:42;20.65;;;16.50;;
27957;SDS011;15295;42.658;23.374;2023-06-22T20:18:02;19.13;;;14.65;;
27957;SDS011;15295;42.658;23.374;2023-06-22T20:20:52;17.65;;;14.57;;
27957;SDS011;15295;42.658;23.374;2023-06-22T20:23:18;16.30;;;14.48;;
27957;SDS011;15295;42.658;23.374;2023-06-22T20:28:25;18.02;;;14.88;;
27957;SDS011;15295;42.658;23.374;2023-06-22T20:31:20;18.88;;;14.45;;
27957;SDS011;15295;42.658;23.374;2023-06-22T20:34:02;17.73;;;14.65;;
27957;SDS011;15295;42.658;23.374;2023-06-22T20:36:30;16.90;;;15.10;;
27957;SDS011;15295;42.658;23.374;2023-06-22T20:38:57;20.35;;;14.05;;
27957;SDS011;15295;42.658;23.374;2023-06-22T20:41:27;20.35;;;13.82;;
27957;SDS011;15295;42.658;23.374;2023-06-22T20:43:56;15.43;;;13.15;;
27957;SDS011;15295;42.658;23.374;2023-06-22T20:46:30;18.95;;;14.52;;
27957;SDS011;15295;42.658;23.374;2023-06-22T20:49:24;21.05;;;14.18;;
27957;SDS011;15295;42.658;23.374;2023-06-22T20:52:12;15.98;;;14.10;;
27957;SDS011;15295;42.658;23.374;2023-06-22T20:58:28;18.90;;;13.65;;
27957;SDS011;15295;42.658;23.374;2023-06-22T21:09:35;17.15;;;13.68;;
27957;SDS011;15295;42.658;23.374;2023-06-22T21:12:02;19.35;;;12.82;;
27957;SDS011;15295;42.658;23.374;2023-06-22T21:14:43;16.13;;;13.30;;
27957;SDS011;15295;42.658;23.374;2023-06-22T21:17:15;15.68;;;12.32;;
27957;SDS011;15295;42.658;23.374;2023-06-22T21:19:45;16.85;;;12.68;;
27957;SDS011;15295;42.658;23.374;2023-06-22T21:22:12;17.92;;;12.27;;
27957;SDS011;15295;42.658;23.374;2023-06-22T21:24:44;18.25;;;12.32;;
27957;SDS011;15295;42.658;23.374;2023-06-22T21:27:30;17.63;;;12.55;;
27957;SDS011;15295;42.658;23.374;2023-06-22T21:30:19;15.93;;;10.88;;
27957;SDS011;15295;42.658;23.374;2023-06-22T21:32:47;16.85;;;11.43;;
27957;SDS011;15295;42.658;23.374;2023-06-22T21:35:14;16.65;;;12.52;;
27957;SDS011;15295;42.658;23.374;2023-06-22T21:37:43;18.33;;;12.45;;
27957;SDS011;15295;42.658;23.374;2023-06-22T21:40:19;14.70;;;12.15;;
27957;SDS011;15295;42.658;23.374;2023-06-22T21:42:49;13.57;;;11.95;;
27957;SDS011;15295;42.658;23.374;2023-06-22T21:45:23;18.00;;;12.73;;
27957;SDS011;15295;42.658;23.374;2023-06-22T21:47:51;23.92;;;12.68;;
27957;SDS011;15295;42.658;23.374;2023-06-22T21:50:20;20.40;;;12.27;;
27957;SDS011;15295;42.658;23.374;2023-06-22T21:53:07;16.20;;;12.13;;
27957;SDS011;15295;42.658;23.374;2023-06-22T21:55:34;16.58;;;12.05;;
27957;SDS011;15295;42.658;23.374;2023-06-22T21:58:04;14.20;;;12.30;;
27957;SDS011;15295;42.658;23.374;2023-06-22T22:00:31;16.33;;;12.32;;
27957;SDS011;15295;42.658;23.374;2023-06-22T22:03:29;18.42;;;12.63;;
27957;SDS011;15295;42.658;23.374;2023-06-22T22:05:55;15.07;;;11.90;;
27957;SDS011;15295;42.658;23.374;2023-06-22T22:08:23;16.17;;;12.00;;
27957;SDS011;15295;42.658;23.374;2023-06-22T22:10:50;17.40;;;12.48;;
27957;SDS011;15295;42.658;23.374;2023-06-22T22:13:24;14.85;;;12.02;;
27957;SDS011;15295;42.658;23.374;2023-06-22T22:15:51;18.40;;;12.50;;
27957;SDS011;15295;42.658;23.374;2023-06-22T22:18:18;16.10;;;12.45;;
27957;SDS011;15295;42.658;23.374;2023-06-22T22:20:50;16.73;;;12.77;;
27957;SDS011;15295;42.658;23.374;2023-06-22T22:23:19;14.32;;;11.85;;
27957;SDS011;15295;42.658;23.374;2023-06-22T22:25:47;16.45;;;11.40;;
27957;SDS011;15295;42.658;23.374;2023-06-22T22:28:18;14.52;;;10.45;;
27957;SDS011;15295;42.658;23.374;2023-06-22T22:30:57;15.93;;;11.27;;
27957;SDS011;15295;42.658;23.374;2023-06-22T22:33:26;14.95;;;11.40;;
27957;SDS011;15295;42.658;23.374;2023-06-22T22:35:55;15.32;;;12.00;;
27957;SDS011;15295;42.658;23.374;2023-06-22T22:38:25;16.63;;;11.32;;
27957;SDS011;15295;42.658;23.374;2023-06-22T22:40:53;14.75;;;11.02;;
27957;SDS011;15295;42.658;23.374;2023-06-22T22:43:23;13.23;;;10.93;;
27957;SDS011;15295;42.658;23.374;2023-06-22T22:45:51;21.73;;;12.05;;
27957;SDS011;15295;42.658;23.374;2023-06-22T22:48:23;14.30;;;11.35;;
27957;SDS011;15295;42.658;23.374;2023-06-22T22:50:51;18.63;;;10.95;;
27957;SDS011;15295;42.658;23.374;2023-06-22T22:53:20;18.30;;;12.02;;
27957;SDS011;15295;42.658;23.374;2023-06-22T22:55:47;15.88;;;11.07;;
27957;SDS011;15295;42.658;23.374;2023-06-22T22:58:28;16.02;;;10.93;;
27957;SDS011;15295;42.658;23.374;2023-06-22T23:00:58;17.80;;;11.10;;
27957;SDS011;15295;42.658;23.374;2023-06-22T23:03:27;14.38;;;10.82;;
27957;SDS011;15295;42.658;23.374;2023-06-22T23:05:58;15.52;;;11.00;;
27957;SDS011;15295;42.658;23.374;2023-06-22T23:08:25;15.68;;;12.52;;
27957;SDS011;15295;42.658;23.374;2023-06-22T23:10:55;15.82;;;11.38;;
27957;SDS011;15295;42.658;23.374;2023-06-22T23:13:25;15.90;;;12.50;;
27957;SDS011;15295;42.658;23.374;2023-06-22T23:15:56;22.80;;;13.40;;
27957;SDS011;15295;42.658;23.374;2023-06-22T23:18:25;18.90;;;11.43;;
27957;SDS011;15295;42.658;23.374;2023-06-22T23:20:53;19.17;;;12.48;;
27957;SDS011;15295;42.658;23.374;2023-06-22T23:23:25;19.40;;;11.55;;
27957;SDS011;15295;42.658;23.374;2023-06-22T23:25:53;15.77;;;11.07;;
27957;SDS011;15295;42.658;23.374;2023-06-22T23:28:18;13.57;;;10.95;;
27957;SDS011;15295;42.658;23.374;2023-06-22T23:30:45;17.80;;;11.27;;
27957;SDS011;15295;42.658;23.374;2023-06-22T23:33:14;15.68;;;10.52;;
27957;SDS011;15295;42.658;23.374;2023-06-22T23:35:46;15.43;;;10.45;;
27957;SDS011;15295;42.658;23.374;2023-06-22T23:38:11;15.02;;;10.55;;
27957;SDS011;15295;42.658;23.374;2023-06-22T23:41:01;14.07;;;10.95;;
27957;SDS011;15295;42.658;23.374;2023-06-22T23:43:27;16.70;;;10.00;;
27957;SDS011;15295;42.658;23.374;2023-06-22T23:45:57;14.13;;;11.38;;
27957;SDS011;15295;42.658;23.374;2023-06-22T23:48:37;14.93;;;11.50;;
27957;SDS011;15295;42.658;23.374;2023-06-22T23:51:06;17.45;;;11.23;;
27957;SDS011;15295;42.658;23.374;2023-06-22T23:53:32;14.35;;;10.82;;
27957;SDS011;15295;42.658;23.374;2023-06-22T23:56:01;15.23;;;11.10;;
27957;SDS011;15295;42.658;23.374;2023-06-22T23:58:28;18.52;;;11.82;;
